Time;durP1;ratioP1;P1;durP2;ratioP2;P2;SDS_P1;SDS_P2;PMS_P1;PMS_P2;Temp;Humidity;BMP_temperature;BMP_pressure;BME280_temperature;BME280_humidity;BME280_pressure;Samples;Min_cycle;Max_cycle;Signal;HPM_P1;HPM_P2
2022/06/07 00:02:12;;;;;;;17.45;9.75;;;;;;;;;;143737;586;46021;-67
2022/06/07 00:04:40;;;;;;;20.55;10.40;;;;;;;;;;143750;570;46020;-68
2022/06/07 00:07:08;;;;;;;20.98;11.02;;;;;;;;;;143740;582;47022;-68
2022/06/07 00:09:36;;;;;;;18.15;11.18;;;;;;;;;;143742;675;46026;-68
2022/06/07 00:12:03;;;;;;;24.67;11.12;;;;;;;;;;143743;570;46020;-68
2022/06/07 00:14:32;;;;;;;27.48;11.35;;;;;;;;;;143744;638;46020;-67
2022/06/07 00:16:59;;;;;;;19.17;10.57;;;;;;;;;;143743;608;47020;-67
2022/06/07 00:19:26;;;;;;;21.48;10.93;;;;;;;;;;143742;600;46010;-67
2022/06/07 00:21:53;;;;;;;21.90;10.85;;;;;;;;;;143745;586;46020;-67
2022/06/07 00:24:20;;;;;;;16.60;9.63;;;;;;;;;;143745;749;46021;-68
2022/06/07 00:26:47;;;;;;;19.33;10.00;;;;;;;;;;143746;613;47020;-69
2022/06/07 00:29:15;;;;;;;19.33;10.73;;;;;;;;;;143742;611;46011;-68
2022/06/07 00:31:43;;;;;;;17.90;9.27;;;;;;;;;;143744;571;46021;-68
2022/06/07 00:34:11;;;;;;;21.60;10.75;;;;;;;;;;143751;600;46020;-68
2022/06/07 00:36:39;;;;;;;15.38;10.00;;;;;;;;;;143742;602;47021;-68
2022/06/07 00:39:06;;;;;;;19.77;9.52;;;;;;;;;;143743;627;46025;-68
2022/06/07 00:41:34;;;;;;;20.67;9.98;;;;;;;;;;143746;621;46020;-69
2022/06/07 00:44:30;;;;;;;22.65;12.48;;;;;;;;;;143745;614;46020;-66
2022/06/07 00:47:24;;;;;;;26.77;13.80;;;;;;;;;;143742;593;47020;-69
2022/06/07 00:50:12;;;;;;;24.85;14.07;;;;;;;;;;143742;566;46010;-68
2022/06/07 00:52:40;;;;;;;24.52;13.32;;;;;;;;;;143743;601;46020;-68
2022/06/07 00:55:08;;;;;;;24.67;13.57;;;;;;;;;;143744;597;46021;-67
2022/06/07 00:57:35;;;;;;;27.70;14.40;;;;;;;;;;143741;597;47020;-69
2022/06/07 01:00:06;;;;;;;20.10;13.25;;;;;;;;;;143741;593;46917;-67
2022/06/07 01:02:33;;;;;;;26.77;13.93;;;;;;;;;;143744;569;46021;-68
2022/06/07 01:05:01;;;;;;;31.62;15.70;;;;;;;;;;143745;580;46020;-67
2022/06/07 01:12:57;;;;;;;27.92;13.25;;;;;;;;;;143743;680;47020;-68
2022/06/07 01:15:24;;;;;;;25.80;13.32;;;;;;;;;;143746;571;46020;-68
2022/06/07 01:17:52;;;;;;;20.37;12.73;;;;;;;;;;143740;623;47023;-67
2022/06/07 01:20:19;;;;;;;20.70;12.25;;;;;;;;;;143742;629;46020;-68
2022/06/07 01:22:46;;;;;;;16.92;11.63;;;;;;;;;;143745;605;46020;-69
2022/06/07 01:25:13;;;;;;;21.50;12.85;;;;;;;;;;143745;581;46021;-67
2022/06/07 01:27:40;;;;;;;22.80;12.50;;;;;;;;;;143740;742;47022;-68
2022/06/07 01:30:08;;;;;;;24.17;12.48;;;;;;;;;;143740;569;47011;-67
2022/06/07 01:32:35;;;;;;;18.73;11.15;;;;;;;;;;143745;591;46021;-69
2022/06/07 01:35:02;;;;;;;23.40;11.27;;;;;;;;;;143745;589;46020;-68
2022/06/07 01:37:29;;;;;;;18.95;10.63;;;;;;;;;;143741;594;47021;-68
2022/06/07 01:42:41;;;;;;;16.70;9.50;;;;;;;;;;143749;595;45022;-67
2022/06/07 01:45:09;;;;;;;16.50;10.32;;;;;;;;;;143748;607;46020;-69
2022/06/07 01:47:37;;;;;;;16.95;9.27;;;;;;;;;;143742;569;47020;-67
2022/06/07 01:50:05;;;;;;;18.58;10.00;;;;;;;;;;143745;565;47010;-68
2022/06/07 01:52:34;;;;;;;17.73;9.63;;;;;;;;;;143744;610;46020;-68
2022/06/07 01:55:01;;;;;;;16.70;9.82;;;;;;;;;;143748;566;46020;-67
2022/06/07 01:57:29;;;;;;;15.85;10.43;;;;;;;;;;143746;579;47022;-67
2022/06/07 01:59:58;;;;;;;15.63;9.23;;;;;;;;;;143742;579;46011;-68
2022/06/07 02:02:27;;;;;;;20.15;10.63;;;;;;;;;;143745;606;46020;-68
2022/06/07 02:04:54;;;;;;;21.98;11.80;;;;;;;;;;143745;674;46020;-68
2022/06/07 02:07:21;;;;;;;20.80;11.65;;;;;;;;;;143742;608;47022;-68
2022/06/07 02:09:48;;;;;;;26.08;11.90;;;;;;;;;;143741;623;47010;-68
2022/06/07 02:12:16;;;;;;;21.70;12.02;;;;;;;;;;143743;577;46020;-68
2022/06/07 02:14:43;;;;;;;24.42;12.30;;;;;;;;;;143743;575;46020;-67
2022/06/07 02:17:10;;;;;;;18.12;11.65;;;;;;;;;;143741;618;47020;-67
2022/06/07 02:19:37;;;;;;;19.48;12.57;;;;;;;;;;143740;587;47010;-68
2022/06/07 02:22:04;;;;;;;21.50;10.57;;;;;;;;;;143744;626;46020;-68
2022/06/07 02:24:31;;;;;;;22.00;12.02;;;;;;;;;;143746;599;46021;-66
2022/06/07 02:27:09;;;;;;;18.15;10.90;;;;;;;;;;143742;585;47020;-68
2022/06/07 02:29:45;;;;;;;14.55;9.52;;;;;;;;;;143743;579;46029;-68
2022/06/07 02:32:17;;;;;;;19.27;10.43;;;;;;;;;;143747;594;46021;-68
2022/06/07 02:34:46;;;;;;;18.60;10.52;;;;;;;;;;143745;572;46020;-68
2022/06/07 02:37:15;;;;;;;18.40;9.60;;;;;;;;;;143741;589;47022;-69
2022/06/07 02:39:43;;;;;;;15.25;9.38;;;;;;;;;;143747;619;46010;-68
2022/06/07 02:42:13;;;;;;;14.85;9.38;;;;;;;;;;143742;618;46020;-68
2022/06/07 02:44:41;;;;;;;24.58;10.77;;;;;;;;;;143749;566;46020;-68
2022/06/07 02:47:08;;;;;;;16.65;10.20;;;;;;;;;;143743;608;47020;-68
2022/06/07 02:49:35;;;;;;;20.05;10.07;;;;;;;;;;143742;603;46020;-68
2022/06/07 02:52:03;;;;;;;18.58;9.98;;;;;;;;;;143742;586;46020;-68
2022/06/07 02:54:30;;;;;;;15.52;9.52;;;;;;;;;;143745;589;46020;-68
2022/06/07 02:56:57;;;;;;;21.83;12.02;;;;;;;;;;143744;611;47022;-69
2022/06/07 02:59:24;;;;;;;18.67;10.27;;;;;;;;;;143743;603;46028;-69
2022/06/07 03:01:51;;;;;;;17.37;10.25;;;;;;;;;;143742;606;46020;-68
2022/06/07 03:04:18;;;;;;;25.10;11.90;;;;;;;;;;143745;578;46020;-69
2022/06/07 03:06:45;;;;;;;18.25;10.93;;;;;;;;;;143741;607;47021;-69
2022/06/07 03:09:12;;;;;;;14.43;9.73;;;;;;;;;;143740;567;47010;-68
2022/06/07 03:11:39;;;;;;;26.45;11.90;;;;;;;;;;143747;604;46020;-68
2022/06/07 03:14:06;;;;;;;25.92;11.73;;;;;;;;;;143745;579;46020;-68
2022/06/07 03:16:33;;;;;;;15.90;10.15;;;;;;;;;;143742;607;47020;-68
2022/06/07 03:19:01;;;;;;;23.30;11.60;;;;;;;;;;143740;570;47010;-68
2022/06/07 03:21:28;;;;;;;19.48;10.70;;;;;;;;;;143744;569;46020;-68
2022/06/07 03:23:56;;;;;;;17.73;10.18;;;;;;;;;;143746;605;46021;-69
2022/06/07 03:26:23;;;;;;;20.75;11.15;;;;;;;;;;143741;563;47020;-68
2022/06/07 03:28:50;;;;;;;22.77;12.13;;;;;;;;;;143741;586;47010;-68
2022/06/07 03:31:18;;;;;;;18.67;11.20;;;;;;;;;;143745;570;46021;-69
2022/06/07 03:33:47;;;;;;;14.40;10.07;;;;;;;;;;143746;603;46020;-68
2022/06/07 03:36:26;;;;;;;16.67;10.95;;;;;;;;;;143740;585;47021;-67
2022/06/07 03:38:55;;;;;;;16.80;11.25;;;;;;;;;;143740;586;47010;-67
2022/06/07 03:41:27;;;;;;;17.50;11.15;;;;;;;;;;143740;594;46020;-68
2022/06/07 03:43:54;;;;;;;17.15;9.77;;;;;;;;;;143744;674;46020;-68
2022/06/07 03:46:27;;;;;;;19.58;10.88;;;;;;;;;;143742;617;47023;-67
2022/06/07 03:48:55;;;;;;;17.45;9.75;;;;;;;;;;143739;581;47010;-69
2022/06/07 03:51:26;;;;;;;17.42;9.50;;;;;;;;;;143745;633;46020;-68
2022/06/07 03:53:53;;;;;;;22.80;12.30;;;;;;;;;;143747;589;46020;-69
2022/06/07 03:56:24;;;;;;;21.02;12.40;;;;;;;;;;143739;570;47020;-68
2022/06/07 03:58:51;;;;;;;28.08;11.65;;;;;;;;;;143740;773;46021;-68
2022/06/07 04:01:20;;;;;;;26.05;12.68;;;;;;;;;;143741;593;46021;-68
2022/06/07 04:03:50;;;;;;;18.90;10.70;;;;;;;;;;143744;612;46020;-68
2022/06/07 04:06:29;;;;;;;18.12;11.12;;;;;;;;;;143739;592;47021;-68
2022/06/07 04:08:56;;;;;;;30.15;14.25;;;;;;;;;;143741;564;46010;-67
2022/06/07 04:11:25;;;;;;;19.73;11.02;;;;;;;;;;143741;575;46020;-68
2022/06/07 04:13:54;;;;;;;21.02;11.35;;;;;;;;;;143744;580;46020;-68
2022/06/07 04:16:24;;;;;;;23.83;11.07;;;;;;;;;;143746;631;47023;-67
2022/06/07 04:18:51;;;;;;;13.95;9.77;;;;;;;;;;143754;572;45919;-68
2022/06/07 04:21:19;;;;;;;18.20;9.23;;;;;;;;;;143756;600;45020;-68
2022/06/07 04:23:47;;;;;;;13.60;9.55;;;;;;;;;;143764;612;45021;-69
2022/06/07 04:26:17;;;;;;;23.15;12.57;;;;;;;;;;143758;578;46020;-68
2022/06/07 04:28:44;;;;;;;18.50;10.25;;;;;;;;;;143754;570;46010;-69
2022/06/07 04:31:19;;;;;;;16.65;10.52;;;;;;;;;;143757;569;44913;-68
2022/06/07 04:33:47;;;;;;;20.88;9.05;;;;;;;;;;143758;566;45020;-68
2022/06/07 04:36:20;;;;;;;23.23;9.30;;;;;;;;;;143760;614;46021;-67
2022/06/07 04:38:49;;;;;;;23.65;9.23;;;;;;;;;;143760;576;45010;-67
2022/06/07 04:41:18;;;;;;;23.95;11.07;;;;;;;;;;143761;566;44020;-66
2022/06/07 04:43:47;;;;;;;17.08;9.95;;;;;;;;;;143758;606;45020;-68
2022/06/07 04:46:15;;;;;;;16.58;8.77;;;;;;;;;;143755;612;46020;-68
2022/06/07 04:48:44;;;;;;;22.45;9.82;;;;;;;;;;143758;600;46010;-68
2022/06/07 04:51:15;;;;;;;23.90;9.75;;;;;;;;;;143759;629;44913;-69
2022/06/07 04:53:42;;;;;;;21.27;9.70;;;;;;;;;;143762;564;46012;-69
2022/06/07 04:56:10;;;;;;;21.60;9.10;;;;;;;;;;143758;575;46020;-69
2022/06/07 04:58:38;;;;;;;16.95;8.00;;;;;;;;;;143761;650;45010;-68
2022/06/07 05:01:16;;;;;;;22.77;8.70;;;;;;;;;;143759;627;45020;-68
2022/06/07 05:03:43;;;;;;;25.55;9.93;;;;;;;;;;143764;658;45020;-68
2022/06/07 05:06:22;;;;;;;16.23;8.82;;;;;;;;;;143759;564;46021;-69
2022/06/07 05:08:51;;;;;;;21.17;8.85;;;;;;;;;;143756;576;46010;-69
2022/06/07 05:11:18;;;;;;;16.05;8.18;;;;;;;;;;143755;574;44912;-69
2022/06/07 05:13:45;;;;;;;21.95;8.23;;;;;;;;;;143764;594;45021;-70
2022/06/07 05:16:12;;;;;;;13.43;7.00;;;;;;;;;;143761;583;45022;-70
2022/06/07 05:18:40;;;;;;;16.95;7.57;;;;;;;;;;143759;579;46010;-67
2022/06/07 05:21:08;;;;;;;13.27;6.43;;;;;;;;;;143761;672;44912;-68
2022/06/07 05:23:35;;;;;;;12.60;6.55;;;;;;;;;;143762;661;45020;-68
2022/06/07 05:26:33;;;;;;;14.02;7.53;;;;;;;;;;143758;671;46020;-68
2022/06/07 05:29:00;;;;;;;14.30;7.68;;;;;;;;;;143759;600;45917;-69
2022/06/07 05:31:27;;;;;;;12.57;6.72;;;;;;;;;;143761;570;45020;-68
2022/06/07 05:33:55;;;;;;;16.12;7.30;;;;;;;;;;143764;606;45020;-68
2022/06/07 05:36:22;;;;;;;17.00;7.47;;;;;;;;;;143754;577;46021;-68
2022/06/07 05:38:49;;;;;;;17.55;8.10;;;;;;;;;;143759;571;46010;-68
2022/06/07 05:41:20;;;;;;;12.85;7.07;;;;;;;;;;143761;587;44910;-68
2022/06/07 05:43:47;;;;;;;14.48;7.00;;;;;;;;;;143763;575;46012;-68
2022/06/07 05:46:15;;;;;;;15.38;6.37;;;;;;;;;;143759;565;46020;-68
2022/06/07 05:48:42;;;;;;;15.73;5.80;;;;;;;;;;143755;646;46030;-69
2022/06/07 05:51:09;;;;;;;11.77;5.90;;;;;;;;;;143758;580;45911;-67
2022/06/07 05:53:36;;;;;;;16.67;7.03;;;;;;;;;;143763;584;45020;-67
2022/06/07 05:56:12;;;;;;;12.98;5.65;;;;;;;;;;143758;652;46020;-69
2022/06/07 05:58:39;;;;;;;11.98;5.55;;;;;;;;;;143752;600;47021;-68
2022/06/07 06:01:10;;;;;;;15.27;6.72;;;;;;;;;;143756;586;45020;-68
2022/06/07 06:03:39;;;;;;;13.32;6.47;;;;;;;;;;143734;593;46020;-68
2022/06/07 06:06:08;;;;;;;15.63;6.22;;;;;;;;;;143734;583;47021;-68
2022/06/07 06:11:22;;;;;;;11.30;5.70;;;;;;;;;;143733;586;45022;-69
2022/06/07 06:13:49;;;;;;;16.23;7.50;;;;;;;;;;143737;582;46021;-69
2022/06/07 06:16:18;;;;;;;15.00;6.55;;;;;;;;;;143732;609;47020;-69
2022/06/07 06:18:51;;;;;;;14.55;7.85;;;;;;;;;;143730;607;47010;-69
2022/06/07 06:21:20;;;;;;;10.05;6.65;;;;;;;;;;143733;564;46021;-70
2022/06/07 06:23:47;;;;;;;13.35;8.45;;;;;;;;;;143736;584;46020;-68
2022/06/07 06:26:16;;;;;;;14.95;7.62;;;;;;;;;;143731;582;47020;-67
2022/06/07 06:28:43;;;;;;;12.45;7.97;;;;;;;;;;143732;569;46011;-67
2022/06/07 06:31:11;;;;;;;16.52;10.00;;;;;;;;;;143732;589;45912;-67
2022/06/07 06:33:50;;;;;;;14.98;9.70;;;;;;;;;;143736;572;46020;-66
2022/06/07 06:36:20;;;;;;;14.50;7.35;;;;;;;;;;143732;581;47021;-67
2022/06/07 06:38:48;;;;;;;17.23;11.50;;;;;;;;;;143730;582;47010;-68
2022/06/07 06:41:22;;;;;;;18.37;10.30;;;;;;;;;;143731;595;45914;-68
2022/06/07 06:43:51;;;;;;;18.27;8.75;;;;;;;;;;143736;570;46012;-67
2022/06/07 06:46:21;;;;;;;13.75;8.40;;;;;;;;;;143731;637;47032;-68
2022/06/07 06:48:49;;;;;;;15.15;7.55;;;;;;;;;;143732;588;47010;-68
2022/06/07 06:51:21;;;;;;;14.87;8.90;;;;;;;;;;143734;599;45034;-67
2022/06/07 06:53:49;;;;;;;18.67;9.85;;;;;;;;;;143737;582;46012;-66
2022/06/07 06:56:19;;;;;;;17.62;8.73;;;;;;;;;;143731;601;47022;-67
2022/06/07 06:58:46;;;;;;;13.77;8.75;;;;;;;;;;143731;644;47010;-67
2022/06/07 07:01:31;;;;;;;15.70;7.30;;;;;;;;;;143731;606;46012;-67
2022/06/07 07:03:59;;;;;;;13.57;6.47;;;;;;;;;;143734;600;46028;-67
2022/06/07 07:06:27;;;;;;;13.55;6.78;;;;;;;;;;143731;582;47023;-67
2022/06/07 07:08:55;;;;;;;11.05;5.93;;;;;;;;;;143733;599;46010;-67
2022/06/07 07:11:26;;;;;;;18.20;7.12;;;;;;;;;;143735;592;45021;-66
2022/06/07 07:13:55;;;;;;;18.30;6.68;;;;;;;;;;143737;630;46012;-67
2022/06/07 07:16:26;;;;;;;15.95;6.20;;;;;;;;;;143732;566;47022;-67
2022/06/07 07:18:54;;;;;;;14.05;6.43;;;;;;;;;;143733;569;46011;-67
2022/06/07 07:21:24;;;;;;;14.00;5.75;;;;;;;;;;143733;583;45021;-67
2022/06/07 07:23:51;;;;;;;18.02;6.32;;;;;;;;;;143735;566;46020;-67
2022/06/07 07:26:22;;;;;;;10.35;5.80;;;;;;;;;;143732;678;47021;-67
2022/06/07 07:28:52;;;;;;;14.05;6.25;;;;;;;;;;143733;644;46010;-67
2022/06/07 07:31:30;;;;;;;14.10;7.30;;;;;;;;;;143734;639;45020;-67
2022/06/07 07:33:58;;;;;;;10.75;5.50;;;;;;;;;;143737;660;46013;-67
2022/06/07 07:36:25;;;;;;;15.13;6.45;;;;;;;;;;143731;686;47020;-67
2022/06/07 07:38:52;;;;;;;12.07;5.47;;;;;;;;;;143731;596;47010;-68
2022/06/07 07:41:30;;;;;;;10.35;6.35;;;;;;;;;;143734;734;46019;-67
2022/06/07 07:44:02;;;;;;;12.77;5.65;;;;;;;;;;143736;583;46012;-67
2022/06/07 07:46:32;;;;;;;10.57;6.15;;;;;;;;;;143733;570;47020;-66
2022/06/07 07:48:59;;;;;;;15.73;6.30;;;;;;;;;;143732;751;47010;-65
2022/06/07 07:51:31;;;;;;;12.43;6.05;;;;;;;;;;143733;569;46014;-67
2022/06/07 07:53:59;;;;;;;12.80;5.95;;;;;;;;;;143735;570;46012;-67
2022/06/07 07:56:27;;;;;;;12.37;6.18;;;;;;;;;;143732;597;47021;-66
2022/06/07 07:58:55;;;;;;;11.75;5.18;;;;;;;;;;143732;654;46010;-67
2022/06/07 08:01:24;;;;;;;9.13;5.32;;;;;;;;;;143732;588;45020;-67
2022/06/07 08:03:52;;;;;;;11.05;6.05;;;;;;;;;;143735;604;47013;-67
2022/06/07 08:06:21;;;;;;;13.50;5.32;;;;;;;;;;143732;583;47020;-67
2022/06/07 08:08:51;;;;;;;9.40;5.35;;;;;;;;;;143731;570;47010;-66
2022/06/07 08:11:21;;;;;;;11.70;5.57;;;;;;;;;;143731;649;47019;-68
2022/06/07 08:13:48;;;;;;;11.20;5.72;;;;;;;;;;143736;623;46021;-69
2022/06/07 08:16:16;;;;;;;18.17;5.10;;;;;;;;;;143732;580;47022;-68
2022/06/07 08:18:43;;;;;;;7.78;5.43;;;;;;;;;;143733;644;45918;-68
2022/06/07 08:21:14;;;;;;;12.45;5.25;;;;;;;;;;143733;633;45021;-69
2022/06/07 08:23:41;;;;;;;10.02;5.20;;;;;;;;;;143736;570;46020;-69
2022/06/07 08:26:09;;;;;;;6.87;4.65;;;;;;;;;;143732;592;47022;-68
2022/06/07 08:28:36;;;;;;;12.00;5.05;;;;;;;;;;143733;567;46010;-68
2022/06/07 08:31:09;;;;;;;7.62;5.10;;;;;;;;;;143731;574;45912;-68
2022/06/07 08:39:05;;;;;;;;;;;;;;;;;;143739;982;46020;-67
2022/06/07 08:41:38;;;;;;;12.57;5.45;;;;;;;;;;143739;606;45021;-66
2022/06/07 08:44:09;;;;;;;7.95;5.22;;;;;;;;;;143737;582;46020;-67
2022/06/07 08:46:37;;;;;;;7.87;4.87;;;;;;;;;;143731;639;47020;-66
2022/06/07 08:49:06;;;;;;;9.45;4.72;;;;;;;;;;143734;700;46010;-66
2022/06/07 08:52:09;;;;;;;6.72;5.05;;;;;;;;;;143732;693;45021;-67
2022/06/07 08:54:38;;;;;;;7.28;4.55;;;;;;;;;;143735;600;46020;-67
2022/06/07 08:57:19;;;;;;;9.93;4.75;;;;;;;;;;143733;604;47022;-67
2022/06/07 08:59:52;;;;;;;10.25;4.55;;;;;;;;;;143733;573;47010;-67
2022/06/07 09:02:47;;;;;;;6.30;4.07;;;;;;;;;;143733;632;45020;-68
2022/06/07 09:05:16;;;;;;;8.35;4.00;;;;;;;;;;143737;603;46010;-67
2022/06/07 09:07:44;;;;;;;8.45;4.28;;;;;;;;;;143733;588;47020;-67
2022/06/07 09:13:22;;;;;;;5.97;3.90;;;;;;;;;;143732;571;45023;-61
2022/06/07 09:15:52;;;;;;;6.62;4.10;;;;;;;;;;143737;672;46010;-60
2022/06/07 09:18:21;;;;;;;6.90;4.75;;;;;;;;;;143731;575;47021;-60
2022/06/07 09:20:50;;;;;;;7.57;4.18;;;;;;;;;;143733;564;46010;-60
2022/06/07 09:23:47;;;;;;;10.55;4.43;;;;;;;;;;143732;649;45020;-60
2022/06/07 09:26:37;;;;;;;6.65;4.55;;;;;;;;;;143737;573;46012;-60
2022/06/07 09:29:38;;;;;;;10.68;5.50;;;;;;;;;;143734;569;46025;-61
2022/06/07 09:32:11;;;;;;;12.00;5.35;;;;;;;;;;143733;611;46010;-61
2022/06/07 09:34:47;;;;;;;;;;;;;;;;;;143737;981;46013;-62
2022/06/07 09:37:17;;;;;;;8.82;3.83;;;;;;;;;;143740;577;47012;-61
2022/06/07 09:39:45;;;;;;;9.80;4.85;;;;;;;;;;143731;610;47022;-60
2022/06/07 09:42:27;;;;;;;5.72;4.03;;;;;;;;;;143731;605;47011;-61
2022/06/07 09:45:22;;;;;;;8.77;3.70;;;;;;;;;;143733;581;45020;-61
2022/06/07 09:47:50;;;;;;;6.85;3.67;;;;;;;;;;143737;574;46013;-60
2022/06/07 09:50:37;;;;;;;4.50;3.20;;;;;;;;;;143733;590;47023;-61
2022/06/07 09:53:16;;;;;;;7.40;4.10;;;;;;;;;;143735;632;46010;-61
2022/06/07 09:56:34;;;;;;;9.00;4.68;;;;;;;;;;143735;586;45021;-61
2022/06/07 09:59:40;;;;;;;4.50;3.40;;;;;;;;;;143735;616;46020;-60
2022/06/07 10:02:47;;;;;;;6.43;3.67;;;;;;;;;;143733;589;47022;-61
2022/06/07 10:05:58;;;;;;;5.22;3.45;;;;;;;;;;143734;609;46023;-60
2022/06/07 10:09:10;;;;;;;5.60;3.15;;;;;;;;;;143734;601;45022;-60
2022/06/07 10:12:05;;;;;;;6.62;3.15;;;;;;;;;;143738;569;46013;-61
2022/06/07 10:14:47;;;;;;;4.95;3.10;;;;;;;;;;143732;674;47022;-61
2022/06/07 10:17:55;;;;;;;3.33;2.85;;;;;;;;;;143732;607;47011;-60
2022/06/07 10:20:49;;;;;;;5.87;3.75;;;;;;;;;;143732;588;45910;-60
2022/06/07 10:23:51;;;;;;;6.25;3.33;;;;;;;;;;143737;627;46012;-60
2022/06/07 10:26:46;;;;;;;4.20;3.40;;;;;;;;;;143732;624;47021;-60
2022/06/07 10:29:48;;;;;;;4.25;3.53;;;;;;;;;;143729;617;47030;-59
2022/06/07 10:32:50;;;;;;;5.47;2.97;;;;;;;;;;143732;586;45912;-60
2022/06/07 10:35:42;;;;;;;4.15;3.40;;;;;;;;;;143738;649;46012;-60
2022/06/07 10:38:50;;;;;;;5.85;4.15;;;;;;;;;;143733;799;47020;-60
2022/06/07 10:41:41;;;;;;;4.22;3.83;;;;;;;;;;143734;600;46011;-60
2022/06/07 10:44:37;;;;;;;6.72;3.95;;;;;;;;;;143733;667;45908;-61
2022/06/07 10:47:42;;;;;;;4.72;3.65;;;;;;;;;;143736;717;47010;-60
2022/06/07 10:50:27;;;;;;;6.40;4.03;;;;;;;;;;143734;728;47023;-60
2022/06/07 10:53:08;;;;;;;7.00;4.60;;;;;;;;;;143734;566;46010;-60
2022/06/07 10:55:45;;;;;;;6.10;4.35;;;;;;;;;;143734;643;45021;-60
2022/06/07 10:58:45;;;;;;;5.95;4.50;;;;;;;;;;143737;576;46020;-60
2022/06/07 11:01:52;;;;;;;5.45;3.97;;;;;;;;;;143733;721;47022;-62
2022/06/07 11:10:46;;;;;;;6.28;4.82;;;;;;;;;;143737;585;45021;-61
2022/06/07 11:14:10;;;;;;;7.18;4.60;;;;;;;;;;143732;581;47020;-61
2022/06/07 11:17:00;;;;;;;7.40;4.93;;;;;;;;;;143728;576;47010;-62
2022/06/07 11:19:28;;;;;;;5.82;4.85;;;;;;;;;;143732;639;45908;-62
2022/06/07 11:21:58;;;;;;;6.28;4.97;;;;;;;;;;143737;574;46020;-62
2022/06/07 11:24:59;;;;;;;8.82;4.60;;;;;;;;;;143732;606;47022;-60
2022/06/07 11:27:28;;;;;;;13.02;5.18;;;;;;;;;;143733;564;47020;-61
2022/06/07 11:30:28;;;;;;;8.70;4.78;;;;;;;;;;143734;677;45020;-62
2022/06/07 11:32:59;;;;;;;5.93;4.50;;;;;;;;;;143738;619;46013;-62
2022/06/07 11:35:49;;;;;;;12.80;4.60;;;;;;;;;;143734;765;47020;-61
2022/06/07 11:38:24;;;;;;;5.57;4.50;;;;;;;;;;143735;648;46010;-61
2022/06/07 11:41:36;;;;;;;5.85;4.47;;;;;;;;;;143736;581;45021;-61
2022/06/07 11:43:58;;;;;;;5.55;4.50;;;;;;;;;;143739;600;46020;-61
2022/06/07 11:47:01;;;;;;;5.93;4.65;;;;;;;;;;143734;593;47020;-62
2022/06/07 11:49:32;;;;;;;6.47;4.45;;;;;;;;;;143735;594;46014;-62
2022/06/07 11:52:25;;;;;;;6.70;4.65;;;;;;;;;;143734;587;45912;-61
2022/06/07 11:55:16;;;;;;;5.82;4.55;;;;;;;;;;143738;672;46020;-61
2022/06/07 11:58:04;;;;;;;5.65;4.65;;;;;;;;;;143734;564;47023;-61
2022/06/07 12:00:44;;;;;;;6.25;4.60;;;;;;;;;;143733;603;46010;-61
2022/06/07 12:03:26;;;;;;;7.32;5.12;;;;;;;;;;143734;605;45021;-62
2022/06/07 12:06:16;;;;;;;6.70;4.80;;;;;;;;;;143739;599;46012;-61
2022/06/07 12:08:55;;;;;;;9.57;4.62;;;;;;;;;;143733;642;47022;-61
2022/06/07 12:11:26;;;;;;;5.95;4.30;;;;;;;;;;143734;564;46011;-61
2022/06/07 12:14:23;;;;;;;8.40;4.78;;;;;;;;;;143735;581;45020;-60
2022/06/07 12:16:59;;;;;;;6.90;4.78;;;;;;;;;;143739;635;46013;-61
2022/06/07 12:19:32;;;;;;;6.03;4.80;;;;;;;;;;143735;590;47020;-62
2022/06/07 12:22:20;;;;;;;5.65;4.60;;;;;;;;;;143732;596;48020;-62
2022/06/07 12:24:59;;;;;;;7.55;4.95;;;;;;;;;;143733;564;45908;-61
2022/06/07 12:27:50;;;;;;;7.37;5.15;;;;;;;;;;143739;635;46020;-61
2022/06/07 12:30:34;;;;;;;6.28;5.00;;;;;;;;;;143738;586;47020;-61
2022/06/07 12:33:32;;;;;;;6.35;4.90;;;;;;;;;;143734;564;46029;-60
2022/06/07 12:36:23;;;;;;;6.47;4.90;;;;;;;;;;143734;596;45910;-61
2022/06/07 12:38:51;;;;;;;9.20;5.00;;;;;;;;;;143739;587;46013;-61
2022/06/07 12:41:24;;;;;;;5.37;4.32;;;;;;;;;;143733;564;47021;-60
2022/06/07 12:43:53;;;;;;;7.72;5.22;;;;;;;;;;143734;592;47010;-61
2022/06/07 12:46:30;;;;;;;8.90;5.10;;;;;;;;;;143735;611;45912;-62
2022/06/07 12:48:59;;;;;;;7.95;4.68;;;;;;;;;;143739;578;46012;-62
2022/06/07 12:51:37;;;;;;;5.40;4.85;;;;;;;;;;143734;610;47022;-61
2022/06/07 12:54:18;;;;;;;7.43;4.68;;;;;;;;;;143733;613;47011;-61
2022/06/07 12:56:46;;;;;;;5.95;4.72;;;;;;;;;;143736;631;46014;-60
2022/06/07 12:59:36;;;;;;;6.82;4.57;;;;;;;;;;143739;645;46012;-60
2022/06/07 13:02:17;;;;;;;5.50;4.90;;;;;;;;;;143735;580;47021;-60
2022/06/07 13:04:53;;;;;;;8.90;5.00;;;;;;;;;;143736;605;46010;-61
2022/06/07 13:07:30;;;;;;;12.37;4.70;;;;;;;;;;143734;608;45912;-61
2022/06/07 13:10:00;;;;;;;6.60;4.80;;;;;;;;;;143740;574;46012;-60
2022/06/07 13:12:43;;;;;;;8.25;5.03;;;;;;;;;;143734;613;47020;-61
2022/06/07 13:15:23;;;;;;;6.33;4.97;;;;;;;;;;143735;580;46010;-60
2022/06/07 13:18:07;;;;;;;5.80;4.70;;;;;;;;;;143735;616;45913;-60
2022/06/07 13:20:40;;;;;;;6.40;4.82;;;;;;;;;;143738;595;47012;-60
2022/06/07 13:23:37;;;;;;;8.05;4.47;;;;;;;;;;143734;580;47022;-60
2022/06/07 13:26:22;;;;;;;9.05;4.65;;;;;;;;;;143732;594;47010;-61
2022/06/07 13:29:02;;;;;;;5.43;4.65;;;;;;;;;;143734;624;45022;-60
2022/06/07 13:31:45;;;;;;;13.48;5.30;;;;;;;;;;143738;591;46015;-61
2022/06/07 13:34:36;;;;;;;5.72;4.20;;;;;;;;;;143734;572;47023;-60
2022/06/07 13:37:16;;;;;;;7.30;4.82;;;;;;;;;;143735;571;46010;-61
2022/06/07 13:40:01;;;;;;;5.62;4.53;;;;;;;;;;143734;585;45913;-61
2022/06/07 13:43:31;;;;;;;6.53;4.65;;;;;;;;;;143736;646;49012;-60
2022/06/07 13:46:03;;;;;;;4.90;4.05;;;;;;;;;;143735;590;47022;-59
2022/06/07 13:54:21;;;;;;;7.05;4.50;;;;;;;;;;143739;598;46010;-59
2022/06/07 13:56:49;;;;;;;6.22;4.80;;;;;;;;;;143733;610;47023;-60
2022/06/07 13:59:18;;;;;;;5.87;4.62;;;;;;;;;;143734;565;46010;-59
2022/06/07 14:01:51;;;;;;;6.15;4.80;;;;;;;;;;143734;583;47021;-59
2022/06/07 14:04:23;;;;;;;7.47;4.82;;;;;;;;;;143738;627;47012;-59
2022/06/07 14:06:51;;;;;;;6.03;4.70;;;;;;;;;;143733;575;47022;-59
2022/06/07 14:09:24;;;;;;;8.32;5.30;;;;;;;;;;143735;604;46011;-60
2022/06/07 14:11:54;;;;;;;7.03;5.30;;;;;;;;;;143735;573;45021;-60
2022/06/07 14:14:22;;;;;;;5.57;4.65;;;;;;;;;;143739;692;46012;-60
2022/06/07 14:17:20;;;;;;;8.13;5.18;;;;;;;;;;143734;575;47021;-59
2022/06/07 14:19:54;;;;;;;6.07;4.80;;;;;;;;;;143735;672;46010;-61
2022/06/07 14:22:25;;;;;;;;;;;;;;;;;;143739;977;45020;-60
2022/06/07 14:24:52;;;;;;;5.90;4.55;;;;;;;;;;143743;565;46021;-59
2022/06/07 14:27:23;;;;;;;7.40;5.05;;;;;;;;;;143734;577;47022;-59
2022/06/07 14:29:51;;;;;;;5.82;4.62;;;;;;;;;;143735;571;46010;-60
2022/06/07 14:32:21;;;;;;;6.18;5.05;;;;;;;;;;143734;593;45021;-60
2022/06/07 14:34:48;;;;;;;7.37;5.00;;;;;;;;;;143737;622;46010;-60
2022/06/07 14:37:18;;;;;;;6.53;5.18;;;;;;;;;;143734;595;47020;-59
2022/06/07 14:39:46;;;;;;;8.55;5.45;;;;;;;;;;143735;569;46024;-59
2022/06/07 14:42:14;;;;;;;5.97;5.28;;;;;;;;;;143735;589;45020;-59
2022/06/07 14:44:43;;;;;;;7.75;5.47;;;;;;;;;;143739;680;46010;-60
2022/06/07 14:47:28;;;;;;;7.57;5.75;;;;;;;;;;143735;569;47038;-60
2022/06/07 14:49:57;;;;;;;7.35;5.60;;;;;;;;;;143735;574;46010;-59
2022/06/07 14:52:24;;;;;;;6.78;5.30;;;;;;;;;;143732;599;46022;-60
2022/06/07 14:54:51;;;;;;;8.07;5.65;;;;;;;;;;143739;658;46012;-60
2022/06/07 14:57:24;;;;;;;7.25;5.32;;;;;;;;;;143734;585;47020;-60
2022/06/07 14:59:52;;;;;;;6.37;5.30;;;;;;;;;;143735;591;46010;-59
2022/06/07 15:02:28;;;;;;;6.78;5.70;;;;;;;;;;143736;701;45021;-60
2022/06/07 15:05:04;;;;;;;8.13;5.45;;;;;;;;;;143738;703;46020;-59
2022/06/07 15:07:36;;;;;;;5.87;5.28;;;;;;;;;;143734;573;47021;-59
2022/06/07 15:10:04;;;;;;;7.25;6.22;;;;;;;;;;143733;571;47011;-60
2022/06/07 15:12:31;;;;;;;6.87;5.30;;;;;;;;;;143736;606;45020;-60
2022/06/07 15:14:58;;;;;;;12.68;6.45;;;;;;;;;;143738;605;46011;-59
2022/06/07 15:17:35;;;;;;;7.75;5.45;;;;;;;;;;143735;569;47021;-59
2022/06/07 15:20:03;;;;;;;6.68;5.65;;;;;;;;;;143735;669;46010;-60
2022/06/07 15:22:31;;;;;;;11.75;5.90;;;;;;;;;;143736;661;45021;-59
2022/06/07 15:24:58;;;;;;;6.43;5.43;;;;;;;;;;143739;564;46011;-59
2022/06/07 15:27:25;;;;;;;8.27;5.93;;;;;;;;;;143734;570;47020;-60
2022/06/07 15:29:54;;;;;;;9.63;5.93;;;;;;;;;;143728;572;47010;-60
2022/06/07 15:32:24;;;;;;;6.75;5.50;;;;;;;;;;143736;677;45021;-59
2022/06/07 15:35:05;;;;;;;8.02;5.72;;;;;;;;;;143740;625;46010;-59
2022/06/07 15:37:34;;;;;;;7.43;5.57;;;;;;;;;;143734;595;47021;-59
2022/06/07 15:40:06;;;;;;;6.97;5.82;;;;;;;;;;143735;679;46011;-60
2022/06/07 15:42:51;;;;;;;7.68;5.80;;;;;;;;;;143735;564;45910;-60
2022/06/07 15:45:24;;;;;;;7.35;5.62;;;;;;;;;;143737;698;47010;-59
2022/06/07 15:48:27;;;;;;;7.30;5.77;;;;;;;;;;143733;648;47020;-59